sensor_id;sensor_type;location;lat;lon;timestamp;temperature;humidity
13606;DHT22;6874;52.084;5.090;2022-11-20T00:00:49;0.00;99.90
13606;DHT22;6874;52.084;5.090;2022-11-20T00:03:15;0.00;99.90
13606;DHT22;6874;52.084;5.090;2022-11-20T00:05:40;0.00;99.90
13606;DHT22;6874;52.084;5.090;2022-11-20T00:08:06;0.00;99.90
13606;DHT22;6874;52.084;5.090;2022-11-20T00:10:31;0.00;99.90
13606;DHT22;6874;52.084;5.090;2022-11-20T00:13:00;0.00;99.90
13606;DHT22;6874;52.084;5.090;2022-11-20T00:15:25;0.00;99.90
13606;DHT22;6874;52.084;5.090;2022-11-20T00:17:51;0.00;99.90
13606;DHT22;6874;52.084;5.090;2022-11-20T00:20:16;-0.10;99.90
13606;DHT22;6874;52.084;5.090;2022-11-20T00:22:42;-0.10;99.90
13606;DHT22;6874;52.084;5.090;2022-11-20T00:25:08;-0.10;99.90
13606;DHT22;6874;52.084;5.090;2022-11-20T00:27:33;-0.10;99.90
13606;DHT22;6874;52.084;5.090;2022-11-20T00:29:59;-0.10;99.90
13606;DHT22;6874;52.084;5.090;2022-11-20T00:32:24;-0.20;99.90
13606;DHT22;6874;52.084;5.090;2022-11-20T00:34:50;-0.20;99.90
13606;DHT22;6874;52.084;5.090;2022-11-20T00:37:15;-0.10;99.90
13606;DHT22;6874;52.084;5.090;2022-11-20T00:39:41;-0.20;99.90
13606;DHT22;6874;52.084;5.090;2022-11-20T00:42:06;-0.20;99.90
13606;DHT22;6874;52.084;5.090;2022-11-20T00:44:32;-0.20;99.90
13606;DHT22;6874;52.084;5.090;2022-11-20T00:46:57;-0.20;99.90
13606;DHT22;6874;52.084;5.090;2022-11-20T00:49:23;-0.20;99.90
13606;DHT22;6874;52.084;5.090;2022-11-20T00:51:48;-0.20;99.90
13606;DHT22;6874;52.084;5.090;2022-11-20T00:54:14;-0.20;99.90
13606;DHT22;6874;52.084;5.090;2022-11-20T00:56:39;-0.30;99.90
13606;DHT22;6874;52.084;5.090;2022-11-20T00:59:05;-0.30;99.90
13606;DHT22;6874;52.084;5.090;2022-11-20T01:01:31;-0.30;99.90
13606;DHT22;6874;52.084;5.090;2022-11-20T01:03:58;-0.30;99.90
13606;DHT22;6874;52.084;5.090;2022-11-20T01:06:30;-0.30;99.90
13606;DHT22;6874;52.084;5.090;2022-11-20T01:08:57;-0.30;99.90
13606;DHT22;6874;52.084;5.090;2022-11-20T01:11:27;-0.30;99.90
13606;DHT22;6874;52.084;5.090;2022-11-20T01:13:54;-0.40;99.90
13606;DHT22;6874;52.084;5.090;2022-11-20T01:16:22;-0.30;99.90
13606;DHT22;6874;52.084;5.090;2022-11-20T01:18:50;-0.30;99.90
13606;DHT22;6874;52.084;5.090;2022-11-20T01:21:24;-0.40;99.90
13606;DHT22;6874;52.084;5.090;2022-11-20T01:23:51;-0.40;99.90
13606;DHT22;6874;52.084;5.090;2022-11-20T01:26:22;-0.40;99.90
13606;DHT22;6874;52.084;5.090;2022-11-20T01:28:49;-0.40;99.90
13606;DHT22;6874;52.084;5.090;2022-11-20T01:31:28;-0.40;99.90
13606;DHT22;6874;52.084;5.090;2022-11-20T01:33:57;-0.40;99.90
13606;DHT22;6874;52.084;5.090;2022-11-20T01:36:24;-0.50;99.90
13606;DHT22;6874;52.084;5.090;2022-11-20T01:38:55;-0.50;99.90
13606;DHT22;6874;52.084;5.090;2022-11-20T01:41:22;-0.50;99.90
13606;DHT22;6874;52.084;5.090;2022-11-20T01:44:09;-0.50;99.90
13606;DHT22;6874;52.084;5.090;2022-11-20T01:46:37;-0.50;99.90
13606;DHT22;6874;52.084;5.090;2022-11-20T01:49:23;-0.50;99.90
13606;DHT22;6874;52.084;5.090;2022-11-20T01:52:00;-0.50;99.90
13606;DHT22;6874;52.084;5.090;2022-11-20T01:55:09;-0.50;99.90
13606;DHT22;6874;52.084;5.090;2022-11-20T01:57:34;-0.60;99.90
13606;DHT22;6874;52.084;5.090;2022-11-20T02:00:12;-0.60;99.90
13606;DHT22;6874;52.084;5.090;2022-11-20T02:02:41;-0.60;99.90
13606;DHT22;6874;52.084;5.090;2022-11-20T02:07:57;-0.60;99.90
13606;DHT22;6874;52.084;5.090;2022-11-20T02:10:23;-0.60;99.90
13606;DHT22;6874;52.084;5.090;2022-11-20T02:12:49;-0.50;99.90
13606;DHT22;6874;52.084;5.090;2022-11-20T02:15:33;-0.70;99.90
13606;DHT22;6874;52.084;5.090;2022-11-20T02:17:59;-0.70;99.90
13606;DHT22;6874;52.084;5.090;2022-11-20T02:20:25;-0.70;99.90
13606;DHT22;6874;52.084;5.090;2022-11-20T02:22:56;-0.70;99.90
13606;DHT22;6874;52.084;5.090;2022-11-20T02:25:24;-0.70;99.90
13606;DHT22;6874;52.084;5.090;2022-11-20T02:27:51;-0.70;99.90
13606;DHT22;6874;52.084;5.090;2022-11-20T02:30:17;-0.70;99.90
13606;DHT22;6874;52.084;5.090;2022-11-20T02:32:43;-0.70;99.90
13606;DHT22;6874;52.084;5.090;2022-11-20T02:35:09;-0.70;99.90
13606;DHT22;6874;52.084;5.090;2022-11-20T02:37:37;-0.70;99.90
13606;DHT22;6874;52.084;5.090;2022-11-20T02:40:04;-0.80;99.90
13606;DHT22;6874;52.084;5.090;2022-11-20T02:42:30;-0.80;99.90
13606;DHT22;6874;52.084;5.090;2022-11-20T02:44:55;-0.80;99.90
13606;DHT22;6874;52.084;5.090;2022-11-20T02:47:21;-0.80;99.90
13606;DHT22;6874;52.084;5.090;2022-11-20T02:49:46;-0.80;99.90
13606;DHT22;6874;52.084;5.090;2022-11-20T02:52:12;-0.80;99.90
13606;DHT22;6874;52.084;5.090;2022-11-20T02:54:37;-0.80;99.90
13606;DHT22;6874;52.084;5.090;2022-11-20T02:57:03;-0.80;99.90
13606;DHT22;6874;52.084;5.090;2022-11-20T02:59:28;-0.80;99.90
13606;DHT22;6874;52.084;5.090;2022-11-20T03:01:54;-0.90;99.90
13606;DHT22;6874;52.084;5.090;2022-11-20T03:04:19;-0.90;99.90
13606;DHT22;6874;52.084;5.090;2022-11-20T03:06:45;-0.90;99.90
13606;DHT22;6874;52.084;5.090;2022-11-20T03:09:11;-0.90;99.90
13606;DHT22;6874;52.084;5.090;2022-11-20T03:11:36;-0.90;99.90
13606;DHT22;6874;52.084;5.090;2022-11-20T03:14:04;-0.90;99.90
13606;DHT22;6874;52.084;5.090;2022-11-20T03:16:31;-0.90;99.90
13606;DHT22;6874;52.084;5.090;2022-11-20T03:18:57;-1.00;99.90
13606;DHT22;6874;52.084;5.090;2022-11-20T03:21:22;-1.00;99.90
13606;DHT22;6874;52.084;5.090;2022-11-20T03:23:48;-1.00;99.90
13606;DHT22;6874;52.084;5.090;2022-11-20T03:26:19;-1.00;99.90
13606;DHT22;6874;52.084;5.090;2022-11-20T03:28:55;-0.90;99.90
13606;DHT22;6874;52.084;5.090;2022-11-20T03:31:24;-1.00;99.90
13606;DHT22;6874;52.084;5.090;2022-11-20T03:33:50;-1.00;99.90
13606;DHT22;6874;52.084;5.090;2022-11-20T03:36:18;-1.00;99.90
13606;DHT22;6874;52.084;5.090;2022-11-20T03:38:45;-1.00;99.90
13606;DHT22;6874;52.084;5.090;2022-11-20T03:41:13;-1.10;99.90
13606;DHT22;6874;52.084;5.090;2022-11-20T03:43:39;-1.00;99.90
13606;DHT22;6874;52.084;5.090;2022-11-20T03:46:06;-1.10;99.90
13606;DHT22;6874;52.084;5.090;2022-11-20T03:48:31;-1.00;99.90
13606;DHT22;6874;52.084;5.090;2022-11-20T03:51:18;-1.10;99.90
13606;DHT22;6874;52.084;5.090;2022-11-20T03:53:45;-1.10;99.90
13606;DHT22;6874;52.084;5.090;2022-11-20T03:56:13;-1.10;99.90
13606;DHT22;6874;52.084;5.090;2022-11-20T03:58:39;-1.10;99.90
13606;DHT22;6874;52.084;5.090;2022-11-20T04:03:32;-1.10;99.90
13606;DHT22;6874;52.084;5.090;2022-11-20T04:06:02;-1.20;99.90
13606;DHT22;6874;52.084;5.090;2022-11-20T04:08:29;-1.20;99.90
13606;DHT22;6874;52.084;5.090;2022-11-20T04:10:54;-1.20;99.90
13606;DHT22;6874;52.084;5.090;2022-11-20T04:13:20;-1.20;99.90
13606;DHT22;6874;52.084;5.090;2022-11-20T04:15:45;-1.20;99.90
13606;DHT22;6874;52.084;5.090;2022-11-20T04:18:10;-1.20;99.90
13606;DHT22;6874;52.084;5.090;2022-11-20T04:20:36;-1.20;99.90
13606;DHT22;6874;52.084;5.090;2022-11-20T04:23:02;-1.20;99.90
13606;DHT22;6874;52.084;5.090;2022-11-20T04:25:27;-1.20;99.90
13606;DHT22;6874;52.084;5.090;2022-11-20T04:27:53;-1.20;99.90
13606;DHT22;6874;52.084;5.090;2022-11-20T04:30:18;-1.20;99.90
13606;DHT22;6874;52.084;5.090;2022-11-20T04:32:44;-1.30;99.90
13606;DHT22;6874;52.084;5.090;2022-11-20T04:35:09;-1.30;99.90
13606;DHT22;6874;52.084;5.090;2022-11-20T04:37:35;-1.30;99.90
13606;DHT22;6874;52.084;5.090;2022-11-20T04:40:00;-1.30;99.90
13606;DHT22;6874;52.084;5.090;2022-11-20T04:42:26;-1.30;99.90
13606;DHT22;6874;52.084;5.090;2022-11-20T04:44:54;-1.40;99.90
13606;DHT22;6874;52.084;5.090;2022-11-20T04:47:21;-1.30;99.90
13606;DHT22;6874;52.084;5.090;2022-11-20T04:49:47;-1.40;99.90
13606;DHT22;6874;52.084;5.090;2022-11-20T04:52:13;-1.40;99.90
13606;DHT22;6874;52.084;5.090;2022-11-20T04:54:38;-1.40;99.90
13606;DHT22;6874;52.084;5.090;2022-11-20T04:57:04;-1.40;99.90
13606;DHT22;6874;52.084;5.090;2022-11-20T04:59:29;-1.40;99.90
13606;DHT22;6874;52.084;5.090;2022-11-20T05:01:55;-1.40;99.90
13606;DHT22;6874;52.084;5.090;2022-11-20T05:04:21;-1.40;99.90
13606;DHT22;6874;52.084;5.090;2022-11-20T05:06:46;-1.40;99.90
13606;DHT22;6874;52.084;5.090;2022-11-20T05:09:12;-1.40;99.90
13606;DHT22;6874;52.084;5.090;2022-11-20T05:11:38;-1.40;99.90
13606;DHT22;6874;52.084;5.090;2022-11-20T05:14:03;-1.50;99.90
13606;DHT22;6874;52.084;5.090;2022-11-20T05:16:29;-1.40;99.90
13606;DHT22;6874;52.084;5.090;2022-11-20T05:18:55;-1.50;99.90
13606;DHT22;6874;52.084;5.090;2022-11-20T05:21:20;-1.40;99.90
13606;DHT22;6874;52.084;5.090;2022-11-20T05:23:46;-1.50;99.90
13606;DHT22;6874;52.084;5.090;2022-11-20T05:26:17;-1.50;99.90
13606;DHT22;6874;52.084;5.090;2022-11-20T05:28:43;-1.50;99.90
13606;DHT22;6874;52.084;5.090;2022-11-20T05:31:17;-1.50;99.90
13606;DHT22;6874;52.084;5.090;2022-11-20T05:33:44;-1.50;99.90
13606;DHT22;6874;52.084;5.090;2022-11-20T05:36:11;-1.60;99.90
13606;DHT22;6874;52.084;5.090;2022-11-20T05:38:37;-1.60;99.90
13606;DHT22;6874;52.084;5.090;2022-11-20T05:41:04;-1.60;99.90
13606;DHT22;6874;52.084;5.090;2022-11-20T05:43:32;-1.60;99.90
13606;DHT22;6874;52.084;5.090;2022-11-20T05:45:58;-1.60;99.90
13606;DHT22;6874;52.084;5.090;2022-11-20T05:48:24;-1.60;99.90
13606;DHT22;6874;52.084;5.090;2022-11-20T05:50:50;-1.60;99.90
13606;DHT22;6874;52.084;5.090;2022-11-20T05:53:15;-1.60;99.90
13606;DHT22;6874;52.084;5.090;2022-11-20T05:55:41;-1.60;99.90
13606;DHT22;6874;52.084;5.090;2022-11-20T05:58:06;-1.60;99.90
13606;DHT22;6874;52.084;5.090;2022-11-20T06:00:32;-1.60;99.90
13606;DHT22;6874;52.084;5.090;2022-11-20T06:02:57;-1.70;99.90
13606;DHT22;6874;52.084;5.090;2022-11-20T06:05:23;-1.70;99.90
13606;DHT22;6874;52.084;5.090;2022-11-20T06:07:48;-1.60;99.90
13606;DHT22;6874;52.084;5.090;2022-11-20T06:10:14;-1.70;99.90
13606;DHT22;6874;52.084;5.090;2022-11-20T06:12:39;-1.70;99.90
13606;DHT22;6874;52.084;5.090;2022-11-20T06:15:05;-1.70;99.90
13606;DHT22;6874;52.084;5.090;2022-11-20T06:17:31;-1.70;99.90
13606;DHT22;6874;52.084;5.090;2022-11-20T06:19:57;-1.70;99.90
13606;DHT22;6874;52.084;5.090;2022-11-20T06:22:22;-1.70;99.90
13606;DHT22;6874;52.084;5.090;2022-11-20T06:24:48;-1.70;99.90
13606;DHT22;6874;52.084;5.090;2022-11-20T06:27:13;-1.70;99.90
13606;DHT22;6874;52.084;5.090;2022-11-20T06:29:39;-1.70;99.90
13606;DHT22;6874;52.084;5.090;2022-11-20T06:32:04;-1.70;99.90
13606;DHT22;6874;52.084;5.090;2022-11-20T06:34:30;-1.70;99.90
13606;DHT22;6874;52.084;5.090;2022-11-20T06:36:56;-1.70;99.90
13606;DHT22;6874;52.084;5.090;2022-11-20T06:39:21;-1.70;99.90
13606;DHT22;6874;52.084;5.090;2022-11-20T06:41:47;-1.70;99.90
13606;DHT22;6874;52.084;5.090;2022-11-20T06:44:12;-1.70;99.90
13606;DHT22;6874;52.084;5.090;2022-11-20T06:46:38;-1.70;99.90
13606;DHT22;6874;52.084;5.090;2022-11-20T06:49:03;-1.70;99.90
13606;DHT22;6874;52.084;5.090;2022-11-20T06:51:29;-1.70;99.90
13606;DHT22;6874;52.084;5.090;2022-11-20T06:53:55;-1.70;99.90
13606;DHT22;6874;52.084;5.090;2022-11-20T06:56:20;-1.70;99.90
13606;DHT22;6874;52.084;5.090;2022-11-20T06:58:46;-1.70;99.90
13606;DHT22;6874;52.084;5.090;2022-11-20T07:01:13;-1.70;99.90
13606;DHT22;6874;52.084;5.090;2022-11-20T07:03:39;-1.70;99.90
13606;DHT22;6874;52.084;5.090;2022-11-20T07:06:06;-1.70;99.90
13606;DHT22;6874;52.084;5.090;2022-11-20T07:08:32;-1.70;99.90
13606;DHT22;6874;52.084;5.090;2022-11-20T07:11:03;-1.60;99.90
13606;DHT22;6874;52.084;5.090;2022-11-20T07:13:30;-1.70;99.90
13606;DHT22;6874;52.084;5.090;2022-11-20T07:16:03;-1.70;99.90
13606;DHT22;6874;52.084;5.090;2022-11-20T07:18:29;-1.70;99.90
13606;DHT22;6874;52.084;5.090;2022-11-20T07:20:55;-1.80;99.90
13606;DHT22;6874;52.084;5.090;2022-11-20T07:23:21;-1.70;99.90
13606;DHT22;6874;52.084;5.090;2022-11-20T07:25:46;-1.70;99.90
13606;DHT22;6874;52.084;5.090;2022-11-20T07:28:12;-1.70;99.90
13606;DHT22;6874;52.084;5.090;2022-11-20T07:30:39;-1.70;99.90
13606;DHT22;6874;52.084;5.090;2022-11-20T07:33:04;-1.70;99.90
13606;DHT22;6874;52.084;5.090;2022-11-20T07:35:30;-1.70;99.90
13606;DHT22;6874;52.084;5.090;2022-11-20T07:37:55;-1.70;99.90
13606;DHT22;6874;52.084;5.090;2022-11-20T07:40:21;-1.70;99.90
13606;DHT22;6874;52.084;5.090;2022-11-20T07:42:51;-1.70;99.90
13606;DHT22;6874;52.084;5.090;2022-11-20T07:45:18;-1.70;99.90
13606;DHT22;6874;52.084;5.090;2022-11-20T07:47:44;-1.70;99.90
13606;DHT22;6874;52.084;5.090;2022-11-20T07:50:10;-1.70;99.90
13606;DHT22;6874;52.084;5.090;2022-11-20T07:52:36;-1.70;99.90
13606;DHT22;6874;52.084;5.090;2022-11-20T07:55:01;-1.70;99.90
13606;DHT22;6874;52.084;5.090;2022-11-20T07:57:27;-1.60;99.90
13606;DHT22;6874;52.084;5.090;2022-11-20T07:59:52;-1.70;99.90
13606;DHT22;6874;52.084;5.090;2022-11-20T08:02:18;-1.60;99.90
13606;DHT22;6874;52.084;5.090;2022-11-20T08:04:43;-1.60;99.90
13606;DHT22;6874;52.084;5.090;2022-11-20T08:07:09;-1.60;99.90
13606;DHT22;6874;52.084;5.090;2022-11-20T08:09:34;-1.60;99.90
13606;DHT22;6874;52.084;5.090;2022-11-20T08:12:00;-1.60;99.90
13606;DHT22;6874;52.084;5.090;2022-11-20T08:14:44;-1.60;99.90
13606;DHT22;6874;52.084;5.090;2022-11-20T08:17:09;-1.50;99.90
13606;DHT22;6874;52.084;5.090;2022-11-20T08:19:35;-1.50;99.90
13606;DHT22;6874;52.084;5.090;2022-11-20T08:22:01;-1.50;99.90
13606;DHT22;6874;52.084;5.090;2022-11-20T08:24:26;-1.40;99.90
13606;DHT22;6874;52.084;5.090;2022-11-20T08:26:52;-1.40;99.90
13606;DHT22;6874;52.084;5.090;2022-11-20T08:29:18;-1.40;99.90
13606;DHT22;6874;52.084;5.090;2022-11-20T08:31:44;-1.40;99.90
13606;DHT22;6874;52.084;5.090;2022-11-20T08:34:09;-1.40;99.90
13606;DHT22;6874;52.084;5.090;2022-11-20T08:36:35;-1.40;99.90
13606;DHT22;6874;52.084;5.090;2022-11-20T08:39:02;-1.30;99.90
13606;DHT22;6874;52.084;5.090;2022-11-20T08:41:29;-1.30;99.90
13606;DHT22;6874;52.084;5.090;2022-11-20T08:43:59;-1.30;99.90
13606;DHT22;6874;52.084;5.090;2022-11-20T08:46:26;-1.30;99.90
13606;DHT22;6874;52.084;5.090;2022-11-20T08:48:52;-1.20;99.90
13606;DHT22;6874;52.084;5.090;2022-11-20T08:51:19;-1.20;99.90
13606;DHT22;6874;52.084;5.090;2022-11-20T08:53:45;-1.20;99.90
13606;DHT22;6874;52.084;5.090;2022-11-20T08:56:11;-1.20;99.90
13606;DHT22;6874;52.084;5.090;2022-11-20T08:58:37;-1.20;99.90
13606;DHT22;6874;52.084;5.090;2022-11-20T09:01:03;-1.10;99.90
13606;DHT22;6874;52.084;5.090;2022-11-20T09:03:29;-1.10;99.90
13606;DHT22;6874;52.084;5.090;2022-11-20T09:06:03;-1.10;99.90
13606;DHT22;6874;52.084;5.090;2022-11-20T09:08:30;-1.10;99.90
13606;DHT22;6874;52.084;5.090;2022-11-20T09:10:57;-1.10;99.90
13606;DHT22;6874;52.084;5.090;2022-11-20T09:13:23;-1.00;99.90
13606;DHT22;6874;52.084;5.090;2022-11-20T09:16:00;-1.00;99.90
13606;DHT22;6874;52.084;5.090;2022-11-20T09:18:28;-0.90;99.90
13606;DHT22;6874;52.084;5.090;2022-11-20T09:20:58;-0.90;99.90
13606;DHT22;6874;52.084;5.090;2022-11-20T09:23:24;-0.90;99.90
13606;DHT22;6874;52.084;5.090;2022-11-20T09:25:50;-0.80;99.90
13606;DHT22;6874;52.084;5.090;2022-11-20T09:28:16;-0.80;99.90
13606;DHT22;6874;52.084;5.090;2022-11-20T09:30:43;-0.80;99.90
13606;DHT22;6874;52.084;5.090;2022-11-20T09:33:09;-0.70;99.90
13606;DHT22;6874;52.084;5.090;2022-11-20T09:35:35;-0.70;99.90
13606;DHT22;6874;52.084;5.090;2022-11-20T09:38:06;-0.70;99.90
13606;DHT22;6874;52.084;5.090;2022-11-20T09:40:34;-0.70;99.90
13606;DHT22;6874;52.084;5.090;2022-11-20T09:43:24;-0.60;99.90
13606;DHT22;6874;52.084;5.090;2022-11-20T09:49:17;-0.60;99.90
13606;DHT22;6874;52.084;5.090;2022-11-20T09:51:58;-0.60;99.90
13606;DHT22;6874;52.084;5.090;2022-11-20T09:54:36;-0.50;99.90
13606;DHT22;6874;52.084;5.090;2022-11-20T09:57:08;-0.50;99.90
13606;DHT22;6874;52.084;5.090;2022-11-20T09:59:50;-0.50;99.90
13606;DHT22;6874;52.084;5.090;2022-11-20T10:02:29;-0.50;99.90
13606;DHT22;6874;52.084;5.090;2022-11-20T10:05:23;-0.40;99.90
13606;DHT22;6874;52.084;5.090;2022-11-20T10:08:13;-0.40;99.90
13606;DHT22;6874;52.084;5.090;2022-11-20T10:11:01;-0.40;99.90
13606;DHT22;6874;52.084;5.090;2022-11-20T10:16:30;-0.30;99.90
13606;DHT22;6874;52.084;5.090;2022-11-20T10:26:59;-0.10;99.90
13606;DHT22;6874;52.084;5.090;2022-11-20T10:29:36;0.00;99.90
13606;DHT22;6874;52.084;5.090;2022-11-20T10:32:09;0.00;99.90
13606;DHT22;6874;52.084;5.090;2022-11-20T10:37:25;0.10;99.90
13606;DHT22;6874;52.084;5.090;2022-11-20T10:42:34;0.10;99.90
13606;DHT22;6874;52.084;5.090;2022-11-20T10:51:14;0.30;99.90
13606;DHT22;6874;52.084;5.090;2022-11-20T11:00:21;0.40;99.90
13606;DHT22;6874;52.084;5.090;2022-11-20T11:02:32;0.40;99.90
13606;DHT22;6874;52.084;5.090;2022-11-20T11:05:10;0.50;99.90
13606;DHT22;6874;52.084;5.090;2022-11-20T11:07:39;0.50;99.90
13606;DHT22;6874;52.084;5.090;2022-11-20T11:10:36;0.50;99.90
13606;DHT22;6874;52.084;5.090;2022-11-20T11:13:06;0.60;99.90
13606;DHT22;6874;52.084;5.090;2022-11-20T11:15:40;0.60;99.90
13606;DHT22;6874;52.084;5.090;2022-11-20T11:18:10;0.60;99.90
13606;DHT22;6874;52.084;5.090;2022-11-20T11:20:37;0.70;99.90
13606;DHT22;6874;52.084;5.090;2022-11-20T11:23:03;0.70;99.90
13606;DHT22;6874;52.084;5.090;2022-11-20T11:25:36;0.70;99.90
13606;DHT22;6874;52.084;5.090;2022-11-20T11:28:05;0.80;99.90
13606;DHT22;6874;52.084;5.090;2022-11-20T11:30:44;0.80;99.90
13606;DHT22;6874;52.084;5.090;2022-11-20T11:33:17;0.80;99.90
13606;DHT22;6874;52.084;5.090;2022-11-20T11:35:46;0.80;99.90
13606;DHT22;6874;52.084;5.090;2022-11-20T11:38:16;0.90;99.90
13606;DHT22;6874;52.084;5.090;2022-11-20T11:40:43;0.90;99.90
13606;DHT22;6874;52.084;5.090;2022-11-20T11:43:36;0.90;99.90
13606;DHT22;6874;52.084;5.090;2022-11-20T11:49:15;1.00;99.90
13606;DHT22;6874;52.084;5.090;2022-11-20T11:52:01;1.00;99.90
13606;DHT22;6874;52.084;5.090;2022-11-20T11:54:38;1.00;99.90
13606;DHT22;6874;52.084;5.090;2022-11-20T12:00:08;1.10;99.90
13606;DHT22;6874;52.084;5.090;2022-11-20T12:05:32;1.10;99.90
13606;DHT22;6874;52.084;5.090;2022-11-20T12:08:18;1.10;99.90
13606;DHT22;6874;52.084;5.090;2022-11-20T12:16:13;1.20;99.90
13606;DHT22;6874;52.084;5.090;2022-11-20T12:18:40;1.20;99.90
13606;DHT22;6874;52.084;5.090;2022-11-20T12:21:35;1.30;99.90
13606;DHT22;6874;52.084;5.090;2022-11-20T12:24:28;1.30;99.90
13606;DHT22;6874;52.084;5.090;2022-11-20T12:43:01;1.40;99.90
13606;DHT22;6874;52.084;5.090;2022-11-20T12:48:52;1.50;99.90
13606;DHT22;6874;52.084;5.090;2022-11-20T13:05:21;1.60;99.90
13606;DHT22;6874;52.084;5.090;2022-11-20T13:07:51;1.70;99.90
13606;DHT22;6874;52.084;5.090;2022-11-20T13:10:45;1.70;99.90
13606;DHT22;6874;52.084;5.090;2022-11-20T13:13:33;1.70;99.90
13606;DHT22;6874;52.084;5.090;2022-11-20T13:16:37;1.70;99.90
13606;DHT22;6874;52.084;5.090;2022-11-20T13:19:05;1.70;99.90
13606;DHT22;6874;52.084;5.090;2022-11-20T13:21:45;1.70;99.90
13606;DHT22;6874;52.084;5.090;2022-11-20T13:24:22;1.80;99.90
13606;DHT22;6874;52.084;5.090;2022-11-20T13:27:17;1.80;99.90
13606;DHT22;6874;52.084;5.090;2022-11-20T13:29:46;1.80;99.90
13606;DHT22;6874;52.084;5.090;2022-11-20T13:32:20;1.80;99.90
13606;DHT22;6874;52.084;5.090;2022-11-20T13:35:00;1.80;99.90
13606;DHT22;6874;52.084;5.090;2022-11-20T13:37:37;1.80;99.90
13606;DHT22;6874;52.084;5.090;2022-11-20T13:42:39;1.90;99.90
13606;DHT22;6874;52.084;5.090;2022-11-20T13:45:25;1.90;99.90
13606;DHT22;6874;52.084;5.090;2022-11-20T13:47:53;1.90;99.90
13606;DHT22;6874;52.084;5.090;2022-11-20T13:50:21;1.90;99.90
13606;DHT22;6874;52.084;5.090;2022-11-20T13:52:56;1.90;99.90
13606;DHT22;6874;52.084;5.090;2022-11-20T14:01:19;1.90;99.90
13606;DHT22;6874;52.084;5.090;2022-11-20T14:03:46;2.00;99.90
13606;DHT22;6874;52.084;5.090;2022-11-20T14:06:30;2.00;99.90
13606;DHT22;6874;52.084;5.090;2022-11-20T14:08:57;2.00;99.90
13606;DHT22;6874;52.084;5.090;2022-11-20T14:11:25;2.00;99.90
13606;DHT22;6874;52.084;5.090;2022-11-20T14:14:00;2.00;99.90
13606;DHT22;6874;52.084;5.090;2022-11-20T14:16:28;2.00;99.90
13606;DHT22;6874;52.084;5.090;2022-11-20T14:18:54;2.00;99.90
13606;DHT22;6874;52.084;5.090;2022-11-20T14:21:26;2.00;99.90
13606;DHT22;6874;52.084;5.090;2022-11-20T14:23:53;2.00;99.90
13606;DHT22;6874;52.084;5.090;2022-11-20T14:26:19;2.00;99.90
13606;DHT22;6874;52.084;5.090;2022-11-20T14:28:50;2.10;99.90
13606;DHT22;6874;52.084;5.090;2022-11-20T14:31:24;2.10;99.90
13606;DHT22;6874;52.084;5.090;2022-11-20T14:33:51;2.10;99.90
13606;DHT22;6874;52.084;5.090;2022-11-20T14:36:20;2.10;99.90
13606;DHT22;6874;52.084;5.090;2022-11-20T14:38:46;2.10;99.90
13606;DHT22;6874;52.084;5.090;2022-11-20T14:41:23;2.10;99.90
13606;DHT22;6874;52.084;5.090;2022-11-20T14:43:59;2.10;99.90
13606;DHT22;6874;52.084;5.090;2022-11-20T14:46:26;2.10;99.90
13606;DHT22;6874;52.084;5.090;2022-11-20T14:48:57;2.10;99.90
13606;DHT22;6874;52.084;5.090;2022-11-20T14:51:38;2.10;99.90
13606;DHT22;6874;52.084;5.090;2022-11-20T14:54:18;2.10;99.90
13606;DHT22;6874;52.084;5.090;2022-11-20T14:57:00;2.10;99.90
13606;DHT22;6874;52.084;5.090;2022-11-20T14:59:28;2.10;99.90
13606;DHT22;6874;52.084;5.090;2022-11-20T15:02:15;2.20;99.90
13606;DHT22;6874;52.084;5.090;2022-11-20T15:04:48;2.20;99.90
13606;DHT22;6874;52.084;5.090;2022-11-20T15:07:29;2.20;99.90
13606;DHT22;6874;52.084;5.090;2022-11-20T15:10:07;2.10;99.90
13606;DHT22;6874;52.084;5.090;2022-11-20T15:12:36;2.20;99.90
13606;DHT22;6874;52.084;5.090;2022-11-20T15:15:03;2.20;99.90
13606;DHT22;6874;52.084;5.090;2022-11-20T15:17:31;2.20;99.90
13606;DHT22;6874;52.084;5.090;2022-11-20T15:19:58;2.20;99.90
13606;DHT22;6874;52.084;5.090;2022-11-20T15:22:25;2.20;99.90
13606;DHT22;6874;52.084;5.090;2022-11-20T15:24:50;2.20;99.90
13606;DHT22;6874;52.084;5.090;2022-11-20T15:27:16;2.20;99.90
13606;DHT22;6874;52.084;5.090;2022-11-20T15:29:42;2.20;99.90
13606;DHT22;6874;52.084;5.090;2022-11-20T15:32:08;2.20;99.90
13606;DHT22;6874;52.084;5.090;2022-11-20T15:34:34;2.40;99.90
13606;DHT22;6874;52.084;5.090;2022-11-20T15:36:59;2.20;99.90
13606;DHT22;6874;52.084;5.090;2022-11-20T15:39:25;2.20;99.90
13606;DHT22;6874;52.084;5.090;2022-11-20T15:41:50;2.20;99.90
13606;DHT22;6874;52.084;5.090;2022-11-20T15:44:16;2.20;99.90
13606;DHT22;6874;52.084;5.090;2022-11-20T15:46:42;2.30;99.90
13606;DHT22;6874;52.084;5.090;2022-11-20T15:49:13;2.30;99.90
13606;DHT22;6874;52.084;5.090;2022-11-20T15:51:42;2.30;99.90
13606;DHT22;6874;52.084;5.090;2022-11-20T15:54:16;2.30;99.90
13606;DHT22;6874;52.084;5.090;2022-11-20T15:56:43;2.30;99.90
13606;DHT22;6874;52.084;5.090;2022-11-20T15:59:09;2.30;99.90
13606;DHT22;6874;52.084;5.090;2022-11-20T16:01:35;2.30;99.90
13606;DHT22;6874;52.084;5.090;2022-11-20T16:04:01;2.30;99.90
13606;DHT22;6874;52.084;5.090;2022-11-20T16:06:27;2.30;99.90
13606;DHT22;6874;52.084;5.090;2022-11-20T16:08:52;2.40;99.90
13606;DHT22;6874;52.084;5.090;2022-11-20T16:11:18;2.30;99.90
13606;DHT22;6874;52.084;5.090;2022-11-20T16:13:44;2.40;99.90
13606;DHT22;6874;52.084;5.090;2022-11-20T16:16:30;2.30;99.90
13606;DHT22;6874;52.084;5.090;2022-11-20T16:18:57;2.40;99.90
13606;DHT22;6874;52.084;5.090;2022-11-20T16:21:23;2.40;99.90
13606;DHT22;6874;52.084;5.090;2022-11-20T16:24:02;2.40;99.90
13606;DHT22;6874;52.084;5.090;2022-11-20T16:26:28;2.40;99.90
13606;DHT22;6874;52.084;5.090;2022-11-20T16:28:54;2.40;99.90
13606;DHT22;6874;52.084;5.090;2022-11-20T16:31:20;2.40;99.90
13606;DHT22;6874;52.084;5.090;2022-11-20T16:33:51;2.40;99.90
13606;DHT22;6874;52.084;5.090;2022-11-20T16:36:17;2.40;99.90
13606;DHT22;6874;52.084;5.090;2022-11-20T16:38:43;2.40;99.90
13606;DHT22;6874;52.084;5.090;2022-11-20T16:41:09;2.50;99.90
13606;DHT22;6874;52.084;5.090;2022-11-20T16:43:52;2.50;99.90
13606;DHT22;6874;52.084;5.090;2022-11-20T16:46:20;2.50;99.90
13606;DHT22;6874;52.084;5.090;2022-11-20T16:48:55;2.50;99.90
13606;DHT22;6874;52.084;5.090;2022-11-20T16:51:21;2.50;99.90
13606;DHT22;6874;52.084;5.090;2022-11-20T16:53:47;2.50;99.90
13606;DHT22;6874;52.084;5.090;2022-11-20T16:56:17;2.50;99.90
13606;DHT22;6874;52.084;5.090;2022-11-20T16:58:44;2.50;99.90
13606;DHT22;6874;52.084;5.090;2022-11-20T17:01:12;2.50;99.90
13606;DHT22;6874;52.084;5.090;2022-11-20T17:03:39;2.50;99.90
13606;DHT22;6874;52.084;5.090;2022-11-20T17:06:19;2.60;99.90
13606;DHT22;6874;52.084;5.090;2022-11-20T17:08:46;2.60;99.90
13606;DHT22;6874;52.084;5.090;2022-11-20T17:11:14;2.60;99.90
13606;DHT22;6874;52.084;5.090;2022-11-20T17:13:40;2.60;99.90
13606;DHT22;6874;52.084;5.090;2022-11-20T17:16:08;2.60;99.90
13606;DHT22;6874;52.084;5.090;2022-11-20T17:18:34;2.60;99.90
13606;DHT22;6874;52.084;5.090;2022-11-20T17:21:00;2.60;99.90
13606;DHT22;6874;52.084;5.090;2022-11-20T17:23:34;2.60;99.90
13606;DHT22;6874;52.084;5.090;2022-11-20T17:26:12;2.60;99.90
13606;DHT22;6874;52.084;5.090;2022-11-20T17:28:43;2.60;99.90
13606;DHT22;6874;52.084;5.090;2022-11-20T17:31:12;2.60;99.90
13606;DHT22;6874;52.084;5.090;2022-11-20T17:33:39;2.60;99.90
13606;DHT22;6874;52.084;5.090;2022-11-20T17:36:06;2.70;99.90
13606;DHT22;6874;52.084;5.090;2022-11-20T17:38:32;2.70;99.90